createdAt,value
2022-12-25T09:57:28.411Z,99830.63
2022-12-25T09:59:56.868Z,99833.22
2022-12-25T10:03:05.734Z,99846.16
2022-12-25T10:06:09.738Z,99839.81
2022-12-25T10:08:55.139Z,99833.72
2022-12-25T10:11:50.512Z,99830.09
2022-12-25T10:14:46.092Z,99823.44
2022-12-25T10:17:56.603Z,99833.84
2022-12-25T10:20:30.031Z,99817.78
2022-12-25T10:23:01.840Z,99817.34
2022-12-25T10:25:31.926Z,99820.13
2022-12-25T10:28:31.945Z,99824.78
2022-12-25T10:31:16.149Z,99815.81
2022-12-25T10:33:44.230Z,99816.41
2022-12-25T10:36:11.956Z,99808.06
2022-12-25T10:38:39.635Z,99805.97
2022-12-25T10:41:21.391Z,99809.56
2022-12-25T10:43:57.006Z,99787.53
2022-12-25T10:46:28.724Z,99798.88
2022-12-25T10:49:02.939Z,99791.84
2022-12-25T10:51:34.852Z,99798.00
2022-12-25T10:54:19.358Z,99796.41
2022-12-25T10:57:00.328Z,99787.97
2022-12-25T10:59:35.707Z,99775.78
2022-12-25T11:02:39.460Z,99787.00
2022-12-25T11:05:23.446Z,99777.38
2022-12-25T11:07:54.373Z,99767.78
2022-12-25T11:10:29.080Z,99763.63
2022-12-25T11:12:58.136Z,99765.03
2022-12-25T11:15:42.690Z,99756.47
2022-12-25T11:18:27.807Z,99753.19
2022-12-25T11:21:16.060Z,99739.31
2022-12-25T11:27:06.805Z,99729.16
2022-12-25T11:29:50.655Z,99733.91
2022-12-25T11:32:30.015Z,99729.25
2022-12-25T11:34:59.281Z,99725.06
2022-12-25T11:37:46.480Z,99731.16
2022-12-25T11:40:19.510Z,99726.84
2022-12-25T11:43:10.985Z,99733.72
2022-12-25T11:45:55.048Z,99722.16
2022-12-25T11:48:33.980Z,99720.22
2022-12-25T11:51:05.798Z,99721.41
2022-12-25T11:53:47.955Z,99727.75
2022-12-25T11:56:21.817Z,99718.94
2022-12-25T11:59:11.477Z,99716.44
2022-12-25T12:01:55.018Z,99715.69
2022-12-25T12:04:42.334Z,99705.09
2022-12-25T12:07:29.370Z,99716.72
2022-12-25T12:10:22.646Z,99698.16
2022-12-25T12:13:11.137Z,99706.84
2022-12-25T12:15:50.477Z,99707.41
2022-12-25T12:18:25.663Z,99705.47
2022-12-25T12:21:17.877Z,99718.06
2022-12-25T12:24:05.420Z,99707.47
2022-12-25T12:26:38.245Z,99704.34
2022-12-25T12:29:21.946Z,99707.50
2022-12-25T12:31:51.633Z,99705.97
2022-12-25T12:34:23.663Z,99701.28
2022-12-25T12:37:22.903Z,99698.91
2022-12-25T12:39:55.149Z,99693.97
2022-12-25T12:42:28.743Z,99698.09
2022-12-25T12:45:07.353Z,99676.44
2022-12-25T12:47:44.749Z,99682.44
2022-12-25T12:50:29.667Z,99688.50
2022-12-25T12:53:02.812Z,99685.59
2022-12-25T12:55:34.833Z,99687.75
2022-12-25T12:58:06.454Z,99688.78
2022-12-25T13:00:55.660Z,99689.56
2022-12-25T13:03:49.025Z,99688.00
2022-12-25T13:06:49.375Z,99683.44
2022-12-25T13:09:49.301Z,99677.53
2022-12-25T13:12:18.115Z,99677.31
2022-12-25T13:14:47.975Z,99682.75
2022-12-25T13:17:23.193Z,99684.72
2022-12-25T13:20:00.282Z,99685.50
2022-12-25T13:22:34.767Z,99681.56
2022-12-25T13:25:08.994Z,99683.13
2022-12-25T13:27:36.865Z,99688.25
2022-12-25T13:30:20.975Z,99685.09
2022-12-25T13:32:49.408Z,99692.75
2022-12-25T13:35:18.842Z,99689.59
2022-12-25T13:37:47.956Z,99685.47
2022-12-25T13:40:28.134Z,99683.28
2022-12-25T13:43:02.093Z,99688.75
2022-12-25T13:45:31.387Z,99691.69
2022-12-25T13:48:16.206Z,99694.00
2022-12-25T13:50:48.578Z,99696.56
2022-12-25T13:53:18.436Z,99694.38
2022-12-25T13:55:53.179Z,99687.69
2022-12-25T13:58:30.858Z,99692.38
2022-12-25T14:01:01.860Z,99696.09
2022-12-25T14:03:37.413Z,99700.00
2022-12-25T14:06:25.346Z,99694.25
2022-12-25T14:08:56.299Z,99693.47
2022-12-25T14:11:31.472Z,99703.09
2022-12-25T14:14:16.068Z,99708.78
2022-12-25T14:16:48.835Z,99699.66
2022-12-25T14:19:34.446Z,99703.34
2022-12-25T14:22:21.197Z,99708.03
2022-12-25T14:24:49.621Z,99703.84
2022-12-25T14:27:24.801Z,99704.41
2022-12-25T14:29:58.344Z,99707.66
2022-12-25T14:32:31.521Z,99692.63
2022-12-25T14:35:03.664Z,99710.44
2022-12-25T14:37:34.407Z,99711.34
2022-12-25T14:40:24.323Z,99712.41
2022-12-25T14:43:06.494Z,99710.66
2022-12-25T14:45:40.264Z,99720.78
2022-12-25T14:48:25.537Z,99713.22
2022-12-25T14:51:15.284Z,99728.81
2022-12-25T14:54:06.490Z,99734.78
2022-12-25T14:56:47.312Z,99731.97
2022-12-25T14:59:26.460Z,99730.13
2022-12-25T15:02:05.039Z,99714.47
2022-12-25T15:04:34.341Z,99723.09
2022-12-25T15:07:09.672Z,99727.13
2022-12-25T15:09:37.977Z,99733.09
2022-12-25T15:12:07.227Z,99740.66
2022-12-25T15:14:38.849Z,99741.34
2022-12-25T15:17:07.325Z,99735.69
2022-12-25T15:19:41.448Z,99741.22
2022-12-25T15:22:13.342Z,99744.78
2022-12-25T15:24:41.064Z,99748.66
2022-12-25T15:27:18.397Z,99755.25
2022-12-25T15:30:09.333Z,99750.00
2022-12-25T15:32:33.666Z,99748.19
2022-12-25T15:35:01.261Z,99759.84
2022-12-25T15:37:31.615Z,99757.97
2022-12-25T15:40:00.088Z,99759.44
2022-12-25T15:42:27.886Z,99758.16
2022-12-25T15:44:55.564Z,99764.41
2022-12-25T15:47:23.294Z,99761.72
2022-12-25T15:49:50.980Z,99767.97
2022-12-25T15:52:18.781Z,99763.41
2022-12-25T15:54:46.792Z,99764.56
2022-12-25T15:57:21.076Z,99739.34
2022-12-25T15:59:48.888Z,99764.59
2022-12-25T16:02:20.807Z,99773.53
2022-12-25T16:04:51.191Z,99774.97
2022-12-25T16:07:25.114Z,99775.78
2022-12-25T16:09:52.780Z,99785.00
2022-12-25T16:12:20.675Z,99785.03
2022-12-25T16:14:48.384Z,99796.16
2022-12-25T16:17:16.250Z,99801.09
2022-12-25T16:19:44.947Z,99796.66
2022-12-25T16:22:18.551Z,99799.81
2022-12-25T16:24:50.829Z,99802.03
2022-12-25T16:27:18.647Z,99802.66
2022-12-25T16:29:46.300Z,99803.44
2022-12-25T16:32:15.655Z,99802.00
2022-12-25T16:34:43.792Z,99804.06
2022-12-25T16:37:11.459Z,99806.13
2022-12-25T16:39:39.505Z,99816.59
2022-12-25T16:42:09.146Z,99815.47
2022-12-25T16:44:46.337Z,99813.09
2022-12-25T16:47:16.208Z,99810.25
2022-12-25T16:49:45.264Z,99804.03
2022-12-25T16:52:14.258Z,99805.16
2022-12-25T16:54:42.717Z,99803.06
2022-12-25T16:57:14.086Z,99801.16
2022-12-25T16:59:43.476Z,99803.84
2022-12-25T17:02:20.534Z,99804.00
2022-12-25T17:04:48.863Z,99790.19
2022-12-25T17:07:18.348Z,99804.47
2022-12-25T17:09:50.134Z,99800.94
2022-12-25T17:12:18.089Z,99803.97
2022-12-25T17:14:45.815Z,99806.94
2022-12-25T17:17:13.572Z,99800.75
2022-12-25T17:19:41.927Z,99813.13
2022-12-25T17:22:09.703Z,99800.88
2022-12-25T17:24:40.126Z,99798.50
2022-12-25T17:27:09.358Z,99795.31
2022-12-25T17:29:39.916Z,99798.63
2022-12-25T17:32:08.946Z,99800.84
2022-12-25T17:34:37.959Z,99801.44
2022-12-25T17:37:06.096Z,99802.53
2022-12-25T17:39:33.805Z,99796.63
2022-12-25T17:42:01.481Z,99798.88
2022-12-25T17:44:29.181Z,99792.50
2022-12-25T17:46:57.154Z,99788.03
2022-12-25T17:49:25.944Z,99787.03
2022-12-25T17:52:03.456Z,99788.16
2022-12-25T17:54:33.554Z,99795.69
2022-12-25T17:57:01.700Z,99793.91
2022-12-25T17:59:30.443Z,99786.75
2022-12-25T18:01:59.067Z,99788.66
2022-12-25T18:04:27.597Z,99774.78
2022-12-25T18:06:56.324Z,99780.41
2022-12-25T18:09:24.956Z,99778.16
2022-12-25T18:11:53.806Z,99789.09
2022-12-25T18:14:22.881Z,99782.31
2022-12-25T18:16:52.747Z,99784.44
2022-12-25T18:19:21.380Z,99797.97
2022-12-25T18:21:51.844Z,99805.72
2022-12-25T18:24:20.586Z,99801.88
2022-12-25T18:26:51.053Z,99795.84
2022-12-25T18:29:19.949Z,99793.63
2022-12-25T18:31:53.774Z,99790.44
2022-12-25T18:34:23.605Z,99792.19
2022-12-25T18:36:51.384Z,99778.91
2022-12-25T18:39:19.475Z,99795.78
2022-12-25T18:42:07.552Z,99801.66
2022-12-25T18:44:35.399Z,99795.13
2022-12-25T18:47:03.526Z,99799.19
2022-12-25T18:49:32.618Z,99803.63
2022-12-25T18:52:49.976Z,99796.00
2022-12-25T18:54:48.779Z,99799.19
2022-12-25T18:57:17.096Z,99785.53
2022-12-25T18:59:44.940Z,99792.63
2022-12-25T19:02:14.885Z,99795.94
2022-12-25T19:04:46.503Z,99790.88
2022-12-25T19:07:14.092Z,99798.78
2022-12-25T19:09:41.968Z,99797.03
2022-12-25T19:12:09.716Z,99783.88
2022-12-25T19:14:47.417Z,99797.84
2022-12-25T19:17:18.031Z,99795.31
2022-12-25T19:19:46.318Z,99789.94
2022-12-25T19:22:14.437Z,99802.47
2022-12-25T19:24:42.388Z,99792.38
2022-12-25T19:27:10.121Z,99803.06
2022-12-25T19:29:38.094Z,99799.56
2022-12-25T19:32:06.046Z,99793.34
2022-12-25T19:34:33.756Z,99773.03
2022-12-25T19:37:01.459Z,99791.75
2022-12-25T19:39:29.592Z,99793.22
2022-12-25T19:41:58.839Z,99778.94
2022-12-25T19:44:26.873Z,99775.59
2022-12-25T19:46:55.913Z,99782.25
2022-12-25T19:49:25.215Z,99774.00
2022-12-25T19:51:55.139Z,99767.06
2022-12-25T19:54:23.025Z,99748.34
2022-12-25T19:56:50.735Z,99746.75
2022-12-25T19:59:18.487Z,99746.31
2022-12-25T20:01:46.351Z,99754.06
2022-12-25T20:04:21.900Z,99750.56
2022-12-25T20:06:49.880Z,99741.88
2022-12-25T20:09:21.451Z,99747.16
2022-12-25T20:11:54.720Z,99737.09
2022-12-25T20:14:30.259Z,99732.59
2022-12-25T20:16:58.892Z,99737.09
2022-12-25T20:19:31.752Z,99720.56
2022-12-25T20:22:01.396Z,99723.25
2022-12-25T20:24:30.979Z,99737.09
2022-12-25T20:26:59.717Z,99738.09
2022-12-25T20:29:28.712Z,99734.81
2022-12-25T20:31:56.664Z,99746.34
2022-12-25T20:34:26.799Z,99738.38
2022-12-25T20:36:55.539Z,99743.44
2022-12-25T20:39:24.787Z,99745.34
2022-12-25T20:41:52.761Z,99761.84
2022-12-25T20:44:20.668Z,99745.56
2022-12-25T20:46:48.374Z,99747.94
2022-12-25T20:49:16.993Z,99745.75
2022-12-25T20:51:45.015Z,99728.94
2022-12-25T20:54:15.514Z,99740.09
2022-12-25T20:56:44.308Z,99751.16
2022-12-25T20:59:12.710Z,99734.38
2022-12-25T21:01:41.775Z,99730.25
2022-12-25T21:04:15.905Z,99723.75
2022-12-25T21:06:44.368Z,99729.63
2022-12-25T21:09:13.191Z,99729.63
2022-12-25T21:11:42.147Z,99727.34
2022-12-25T21:14:11.009Z,99717.97
2022-12-25T21:16:40.315Z,99705.59
2022-12-25T21:19:09.583Z,99698.97
2022-12-25T21:21:44.318Z,99709.47
2022-12-25T21:24:13.154Z,99708.94
2022-12-25T21:26:47.799Z,99721.44
2022-12-25T21:29:18.310Z,99725.31
2022-12-25T21:32:04.534Z,99728.16
2022-12-25T21:34:33.078Z,99734.66
2022-12-25T21:37:02.007Z,99714.03
2022-12-25T21:39:30.660Z,99724.94
2022-12-25T21:42:00.615Z,99719.09
2022-12-25T21:44:29.468Z,99719.53
2022-12-25T21:46:57.402Z,99726.66
2022-12-25T21:49:43.704Z,99730.88
2022-12-25T21:52:12.495Z,99732.94
2022-12-25T21:54:40.844Z,99723.09
2022-12-25T21:57:08.574Z,99722.06
2022-12-25T21:59:36.802Z,99730.63
2022-12-25T22:02:11.776Z,99730.91
2022-12-25T22:04:40.539Z,99724.53
2022-12-25T22:07:19.617Z,99723.75
2022-12-25T22:09:51.784Z,99735.75
2022-12-25T22:12:40.801Z,99726.19
2022-12-25T22:15:10.727Z,99729.50
2022-12-25T22:18:01.714Z,99734.22
2022-12-25T22:20:38.183Z,99731.00
2022-12-25T22:23:06.207Z,99730.81
2022-12-25T22:25:34.077Z,99738.03
2022-12-25T22:28:01.766Z,99735.69
2022-12-25T22:30:30.202Z,99737.44
2022-12-25T22:32:58.371Z,99752.75
2022-12-25T22:35:26.221Z,99748.25
2022-12-25T22:37:54.461Z,99739.75
2022-12-25T22:40:22.358Z,99743.66
2022-12-25T22:42:53.972Z,99736.19
2022-12-25T22:45:22.181Z,99725.06
2022-12-25T22:47:50.370Z,99733.19
2022-12-25T22:50:18.904Z,99736.22
2022-12-25T22:52:47.308Z,99742.22
2022-12-25T22:55:19.463Z,99738.25
2022-12-25T22:57:47.281Z,99735.72
2022-12-25T23:00:15.387Z,99735.88
2022-12-25T23:02:43.497Z,99736.28
2022-12-25T23:05:11.600Z,99739.09
2022-12-25T23:07:39.336Z,99743.34
2022-12-25T23:10:08.425Z,99740.16
2022-12-25T23:12:54.652Z,99740.03
2022-12-25T23:15:22.752Z,99741.63
2022-12-25T23:18:08.919Z,99732.44
2022-12-25T23:20:56.197Z,99723.13
2022-12-25T23:23:42.784Z,99723.91
2022-12-25T23:26:11.091Z,99724.50
2022-12-25T23:29:00.285Z,99726.41
2022-12-25T23:31:36.695Z,99721.78
2022-12-25T23:34:07.094Z,99722.56
2022-12-25T23:36:35.365Z,99721.09
2022-12-25T23:39:09.774Z,99723.75
2022-12-25T23:41:41.526Z,99717.63
2022-12-25T23:44:11.591Z,99719.34
2022-12-25T23:46:40.700Z,99718.06
2022-12-25T23:49:10.352Z,99719.00
2022-12-25T23:51:45.926Z,99717.13
2022-12-25T23:54:18.128Z,99713.16
2022-12-25T23:56:46.510Z,99716.66
2022-12-25T23:59:15.499Z,99718.63
